createdAt,value
2023-02-23T00:01:13.858Z,86.54
2023-02-23T00:06:14.014Z,88.23
2023-02-23T00:11:13.132Z,88.23
2023-02-23T00:16:15.301Z,88.18
2023-02-23T00:21:16.773Z,88.08
2023-02-23T00:26:16.062Z,88.08
2023-02-23T00:31:15.173Z,87.67
2023-02-23T00:36:17.312Z,87.63
2023-02-23T00:41:16.529Z,88.14
2023-02-23T00:46:18.852Z,87.49
2023-02-23T00:51:20.246Z,88.76
2023-02-23T00:56:17.743Z,88.66
2023-02-23T01:01:22.145Z,91.31
2023-02-23T01:06:20.326Z,92.23
2023-02-23T01:11:21.517Z,94.64
2023-02-23T01:16:20.591Z,94.90
2023-02-23T01:21:21.735Z,94.23
2023-02-23T01:26:22.879Z,94.39
2023-02-23T01:31:25.157Z,95.67
2023-02-23T01:36:25.318Z,96.28
2023-02-23T01:41:24.450Z,95.93
2023-02-23T01:46:25.581Z,96.28
2023-02-23T01:51:27.759Z,95.97
2023-02-23T01:56:28.342Z,97.41
2023-02-23T02:01:28.517Z,97.10
2023-02-23T02:06:28.659Z,98.18
2023-02-23T02:11:28.771Z,99.10
2023-02-23T02:16:27.953Z,98.90
2023-02-23T02:21:29.085Z,99.00
2023-02-23T02:26:31.227Z,99.51
2023-02-23T02:31:30.477Z,99.31
2023-02-23T02:36:32.611Z,99.51
2023-02-23T02:41:31.982Z,99.82
2023-02-23T02:46:33.128Z,99.72
2023-02-23T02:51:34.268Z,99.93
2023-02-23T02:56:36.358Z,99.99
2023-02-23T03:01:35.553Z,99.99
2023-02-23T03:06:36.681Z,99.99
2023-02-23T03:11:37.792Z,99.99
2023-02-23T03:16:39.916Z,99.99
2023-02-23T03:21:39.037Z,99.99
2023-02-23T03:26:41.180Z,99.99
2023-02-23T03:31:40.386Z,99.99
2023-02-23T03:36:41.534Z,99.99
2023-02-23T03:41:43.696Z,99.99
2023-02-23T03:46:43.798Z,99.99
2023-02-23T03:51:44.009Z,99.99
2023-02-23T03:56:44.088Z,99.99
2023-02-23T04:01:44.267Z,99.99
2023-02-23T04:06:43.413Z,99.99
2023-02-23T04:11:44.557Z,99.99
2023-02-23T04:16:45.784Z,99.99
2023-02-23T04:21:46.916Z,99.99
2023-02-23T04:26:48.072Z,99.99
2023-02-23T04:31:50.394Z,99.99
2023-02-23T04:36:48.592Z,99.99
2023-02-23T04:41:50.001Z,99.99
2023-02-23T04:46:52.142Z,99.99
2023-02-23T04:51:51.255Z,99.99
2023-02-23T04:56:52.396Z,99.99
2023-02-23T05:01:53.531Z,99.99
2023-02-23T05:06:56.657Z,99.99
2023-02-23T05:11:56.789Z,99.99
2023-02-23T05:16:55.902Z,99.99
2023-02-23T05:21:56.023Z,99.99
2023-02-23T05:26:57.144Z,99.99
2023-02-23T05:31:58.348Z,99.99
2023-02-23T05:36:59.503Z,99.99
2023-02-23T05:42:01.637Z,99.99
2023-02-23T05:47:00.744Z,99.99
2023-02-23T05:52:01.910Z,99.99
2023-02-23T05:57:03.097Z,99.99
2023-02-23T06:02:04.198Z,99.99
2023-02-23T06:07:06.325Z,99.99
2023-02-23T06:12:05.457Z,99.99
2023-02-23T06:17:07.600Z,99.99
2023-02-23T06:22:06.696Z,99.99
2023-02-23T06:27:07.856Z,99.99
2023-02-23T06:32:09.084Z,99.99
2023-02-23T06:37:10.244Z,99.99
2023-02-23T06:42:11.368Z,99.99
2023-02-23T06:47:14.521Z,99.99
2023-02-23T06:52:14.681Z,99.99
2023-02-23T06:57:13.817Z,99.99
2023-02-23T07:02:14.902Z,99.99
2023-02-23T07:07:18.044Z,99.99
2023-02-23T07:12:18.154Z,99.99
2023-02-23T07:17:17.299Z,99.99
2023-02-23T07:22:19.404Z,99.99
2023-02-23T07:27:18.501Z,99.99
2023-02-23T07:32:19.747Z,99.99
2023-02-23T07:37:21.890Z,99.99
2023-02-23T07:42:22.057Z,99.37
2023-02-23T07:47:21.166Z,98.80
2023-02-23T07:52:22.272Z,98.04
2023-02-23T07:57:24.916Z,97.42
2023-02-23T08:02:24.212Z,96.97
2023-02-23T08:07:25.323Z,96.77
2023-02-23T08:12:27.471Z,96.56
2023-02-23T08:17:26.611Z,96.15
2023-02-23T08:22:28.525Z,96.00
2023-02-23T08:27:28.462Z,95.20
2023-02-23T08:32:29.756Z,94.68
2023-02-23T08:37:30.869Z,93.71
2023-02-23T08:42:32.966Z,94.29
2023-02-23T08:47:32.076Z,94.10
2023-02-23T08:52:35.514Z,92.37
2023-02-23T08:57:34.676Z,90.10
2023-02-23T09:02:33.800Z,86.67
2023-02-23T09:07:37.923Z,89.58
2023-02-23T09:12:35.038Z,88.00
2023-02-23T09:17:36.144Z,89.08
2023-02-23T09:22:38.281Z,88.35
2023-02-23T09:27:38.412Z,86.20
2023-02-23T09:32:37.604Z,86.10
2023-02-23T09:37:38.716Z,87.32
2023-02-23T09:42:40.824Z,87.53
2023-02-23T09:47:39.923Z,87.88
2023-02-23T09:52:40.440Z,87.49
2023-02-23T09:57:42.914Z,86.39
2023-02-23T10:02:42.002Z,84.86
2023-02-23T10:07:44.094Z,84.69
2023-02-23T10:12:45.205Z,85.37
2023-02-23T10:17:43.304Z,84.45
2023-02-23T10:22:45.420Z,86.21
2023-02-23T10:27:45.541Z,83.86
2023-02-23T10:32:45.659Z,84.06
2023-02-23T10:37:45.802Z,82.29
2023-02-23T10:42:45.915Z,81.85
2023-02-23T10:47:46.029Z,82.50
2023-02-23T10:52:46.153Z,81.11
2023-02-23T10:57:45.329Z,84.00
2023-02-23T11:02:46.483Z,82.64
2023-02-23T11:07:48.605Z,81.27
2023-02-23T11:12:47.693Z,82.66
2023-02-23T11:17:48.855Z,81.24
2023-02-23T11:22:51.929Z,81.23
2023-02-23T11:27:51.047Z,79.29
2023-02-23T11:32:53.154Z,80.02
2023-02-23T11:37:53.252Z,81.11
2023-02-23T11:42:52.336Z,80.16
2023-02-23T11:47:53.444Z,78.86
2023-02-23T11:52:55.544Z,79.02
2023-02-23T11:57:54.634Z,78.38
2023-02-23T12:02:57.778Z,79.95
2023-02-23T12:07:56.868Z,79.50
2023-02-23T12:12:58.976Z,78.93
2023-02-23T12:17:58.062Z,80.11
2023-02-23T12:22:59.237Z,77.44
2023-02-23T12:28:16.894Z,76.31
2023-02-23T12:33:01.299Z,74.82
2023-02-23T12:38:01.407Z,73.46
2023-02-23T12:43:01.505Z,72.01
2023-02-23T12:48:01.590Z,73.57
2023-02-23T12:53:00.694Z,74.48
2023-02-23T12:58:01.791Z,72.89
2023-02-23T13:03:02.965Z,72.11
2023-02-23T13:08:13.096Z,71.60
2023-02-23T13:13:05.521Z,70.86
2023-02-23T13:18:05.948Z,71.33
2023-02-23T13:23:05.074Z,70.82
2023-02-23T13:28:06.240Z,71.06
2023-02-23T13:33:07.379Z,67.38
2023-02-23T13:38:08.453Z,67.47
2023-02-23T13:43:11.553Z,68.25
2023-02-23T13:48:10.651Z,65.74
2023-02-23T13:53:11.853Z,66.15
2023-02-23T13:58:15.033Z,66.55
2023-02-23T14:03:14.166Z,69.20
2023-02-23T14:08:17.269Z,67.27
2023-02-23T14:13:17.399Z,69.02
2023-02-23T14:18:16.501Z,68.38
2023-02-23T14:23:19.665Z,65.99
2023-02-23T14:28:18.768Z,64.36
2023-02-23T14:33:21.877Z,64.87
2023-02-23T14:38:22.043Z,66.72
2023-02-23T14:43:21.143Z,64.76
2023-02-23T14:48:24.245Z,66.60
2023-02-23T14:53:24.676Z,66.22
2023-02-23T14:58:25.787Z,68.08
2023-02-23T15:03:24.886Z,71.91
2023-02-23T15:08:25.994Z,72.62
2023-02-23T15:13:29.187Z,72.25
2023-02-23T15:18:29.381Z,71.33
2023-02-23T15:23:28.668Z,70.72
2023-02-23T15:28:30.851Z,69.80
2023-02-23T15:33:30.034Z,68.99
2023-02-23T15:38:42.817Z,70.01
2023-02-23T15:43:33.145Z,69.80
2023-02-23T15:48:32.294Z,70.45
2023-02-23T15:53:33.407Z,70.95
2023-02-23T15:58:39.590Z,71.30
2023-02-23T16:03:36.667Z,71.39
2023-02-23T16:08:37.172Z,71.67
2023-02-23T16:13:37.566Z,71.70
2023-02-23T16:18:38.739Z,72.01
2023-02-23T16:23:37.873Z,72.86
2023-02-23T16:28:40.027Z,73.77
2023-02-23T16:33:39.164Z,75.07
2023-02-23T16:38:43.274Z,75.16
2023-02-23T16:43:40.602Z,75.41
2023-02-23T16:48:41.803Z,75.31
2023-02-23T16:53:45.706Z,76.06
2023-02-23T16:58:44.872Z,76.67
2023-02-23T17:03:52.434Z,77.42
2023-02-23T17:08:57.110Z,77.66
2023-02-23T17:13:45.154Z,77.76
2023-02-23T17:18:46.682Z,78.31
2023-02-23T17:23:48.032Z,79.88
2023-02-23T17:28:47.390Z,79.91
2023-02-23T17:33:47.806Z,81.70
2023-02-23T17:38:48.129Z,80.88
2023-02-23T17:43:48.508Z,80.98
2023-02-23T17:48:48.999Z,82.04
2023-02-23T17:53:48.448Z,82.59
2023-02-23T17:58:49.895Z,83.45
2023-02-23T18:03:53.845Z,84.20
2023-02-23T18:08:53.265Z,84.66
2023-02-23T18:13:52.720Z,85.55
2023-02-23T18:18:54.177Z,86.13
2023-02-23T18:23:54.658Z,87.34
2023-02-23T18:28:54.164Z,86.87
2023-02-23T18:33:54.690Z,86.72
2023-02-23T18:38:54.127Z,86.97
2023-02-23T18:43:54.320Z,87.07
2023-02-23T18:48:54.989Z,87.22
2023-02-23T18:53:55.397Z,88.29
2023-02-23T18:58:54.682Z,88.49
2023-02-23T19:03:56.076Z,88.43
2023-02-23T19:08:55.538Z,90.18
2023-02-23T19:13:55.092Z,92.03
2023-02-23T19:18:54.592Z,93.41
2023-02-23T19:23:55.094Z,94.13
2023-02-23T19:28:54.332Z,92.43
2023-02-23T19:33:56.703Z,93.65
2023-02-23T19:38:55.958Z,96.64
2023-02-23T19:43:58.333Z,95.09
2023-02-23T19:48:58.808Z,94.17
2023-02-23T19:53:59.387Z,94.21
2023-02-23T19:58:58.623Z,94.62
2023-02-23T20:04:01.516Z,94.47
2023-02-23T20:09:02.022Z,96.06
2023-02-23T20:14:01.210Z,95.80
2023-02-23T20:19:02.633Z,96.11
2023-02-23T20:24:07.213Z,97.14
2023-02-23T20:29:05.008Z,97.97
2023-02-23T20:34:04.060Z,98.07
2023-02-23T20:39:03.788Z,97.60
2023-02-23T20:44:03.079Z,99.99
2023-02-23T20:49:04.854Z,99.99
2023-02-23T20:54:04.390Z,99.77
2023-02-23T20:59:18.207Z,98.99
2023-02-23T21:04:08.436Z,98.43
2023-02-23T21:09:06.384Z,98.16
2023-02-23T21:14:10.696Z,98.16
2023-02-23T21:19:17.185Z,98.47
2023-02-23T21:24:11.628Z,98.62
2023-02-23T21:29:25.455Z,99.99
2023-02-23T21:34:12.602Z,99.99
2023-02-23T21:39:11.503Z,98.37
2023-02-23T21:44:09.681Z,98.10
2023-02-23T21:49:08.998Z,98.61
2023-02-23T21:54:13.846Z,99.13
2023-02-23T21:59:11.029Z,99.99
2023-02-23T22:04:12.133Z,99.99
2023-02-23T22:09:13.321Z,99.31
2023-02-23T22:14:14.421Z,97.20
2023-02-23T22:19:15.654Z,95.61
2023-02-23T22:24:17.802Z,93.77
2023-02-23T22:29:17.467Z,92.38
2023-02-23T22:34:18.694Z,91.46
2023-02-23T22:39:17.778Z,91.44
2023-02-23T22:44:19.876Z,93.28
2023-02-23T22:49:19.029Z,94.35
2023-02-23T22:54:20.315Z,96.72
2023-02-23T22:59:21.492Z,97.17
2023-02-23T23:04:23.607Z,96.34
2023-02-23T23:09:22.794Z,97.94
2023-02-23T23:14:23.948Z,98.35
2023-02-23T23:19:24.659Z,98.66
2023-02-23T23:24:25.897Z,98.46
2023-02-23T23:29:27.244Z,97.74
2023-02-23T23:34:29.400Z,97.84
2023-02-23T23:39:27.666Z,98.09
2023-02-23T23:44:27.788Z,98.13
2023-02-23T23:49:29.955Z,98.70
2023-02-23T23:54:29.096Z,98.80
2023-02-23T23:59:30.210Z,98.49
